createdAt,value
2018-07-12T00:02:18.266Z,20.45
2018-07-12T00:04:46.554Z,20.35
2018-07-12T00:07:14.370Z,20.39
2018-07-12T00:09:42.339Z,20.36
2018-07-12T00:12:10.181Z,20.33
2018-07-12T00:14:38.051Z,20.36
2018-07-12T00:17:06.529Z,20.38
2018-07-12T00:19:34.591Z,20.38
2018-07-12T00:22:02.421Z,20.38
2018-07-12T00:24:30.260Z,20.36
2018-07-12T00:26:58.404Z,20.36
2018-07-12T00:29:26.322Z,20.25
2018-07-12T00:31:54.321Z,20.41
2018-07-12T00:34:22.155Z,20.30
2018-07-12T00:36:50.196Z,20.46
2018-07-12T00:39:28.795Z,20.55
2018-07-12T00:41:56.608Z,20.57
2018-07-12T00:44:24.374Z,20.54
2018-07-12T00:49:19.645Z,20.45
2018-07-12T00:51:47.690Z,20.54
2018-07-12T00:54:15.512Z,20.50
2018-07-12T00:56:43.274Z,20.61
2018-07-12T00:59:11.074Z,20.60
2018-07-12T01:01:39.370Z,20.66
2018-07-12T01:04:07.214Z,20.47
2018-07-12T01:06:35.359Z,20.43
2018-07-12T01:09:03.170Z,20.46
2018-07-12T01:11:30.945Z,20.48
2018-07-12T01:13:58.718Z,20.41
2018-07-12T01:16:26.886Z,20.48
2018-07-12T01:18:54.672Z,20.59
2018-07-12T01:21:22.452Z,20.59
2018-07-12T01:23:50.759Z,20.64
2018-07-12T01:26:18.611Z,20.60
2018-07-12T01:28:46.447Z,20.73
2018-07-12T01:31:14.257Z,20.71
2018-07-12T01:33:42.010Z,20.66
2018-07-12T01:36:09.826Z,20.60
2018-07-12T01:38:37.653Z,20.57
2018-07-12T01:41:05.473Z,20.64
2018-07-12T01:43:33.274Z,20.68
2018-07-12T01:46:01.187Z,20.67
2018-07-12T01:48:29.007Z,20.64
2018-07-12T01:50:56.839Z,20.72
2018-07-12T01:53:25.262Z,20.69
2018-07-12T01:55:53.188Z,20.73
2018-07-12T01:58:20.950Z,20.59
2018-07-12T02:00:48.921Z,20.68
2018-07-12T02:03:17.126Z,20.57
2018-07-12T02:05:44.895Z,20.66
2018-07-12T02:08:12.967Z,20.75
2018-07-12T02:10:40.760Z,20.64
2018-07-12T02:13:08.565Z,20.67
2018-07-12T02:15:36.390Z,20.73
2018-07-12T02:18:04.194Z,20.80
2018-07-12T02:20:31.985Z,20.74
2018-07-12T02:22:59.827Z,20.78
2018-07-12T02:25:27.614Z,20.74
2018-07-12T02:27:55.374Z,20.72
2018-07-12T02:30:23.567Z,20.62
2018-07-12T02:32:51.327Z,20.63
2018-07-12T02:35:19.137Z,20.66
2018-07-12T02:37:47.018Z,20.66
2018-07-12T02:40:14.810Z,20.47
2018-07-12T02:42:42.575Z,20.54
2018-07-12T02:45:10.376Z,20.64
2018-07-12T02:47:38.150Z,20.66
2018-07-12T02:50:05.942Z,20.76
2018-07-12T02:52:34.035Z,20.75
2018-07-12T02:55:01.809Z,20.75
2018-07-12T02:57:29.600Z,20.64
2018-07-12T02:59:57.413Z,20.54
2018-07-12T03:02:25.249Z,20.49
2018-07-12T03:04:53.073Z,20.41
2018-07-12T03:07:20.881Z,20.33
2018-07-12T03:09:48.670Z,20.47
2018-07-12T03:12:17.295Z,20.33
2018-07-12T03:14:45.227Z,20.43
2018-07-12T03:17:13.020Z,20.44
2018-07-12T03:19:40.794Z,20.38
2018-07-12T03:22:08.609Z,20.38
2018-07-12T03:24:36.394Z,20.19
2018-07-12T03:27:04.146Z,20.21
2018-07-12T03:29:31.930Z,20.37
2018-07-12T03:31:59.737Z,20.40
2018-07-12T03:34:27.571Z,20.48
2018-07-12T03:36:55.573Z,20.44
2018-07-12T03:39:23.439Z,20.33
2018-07-12T03:41:51.245Z,20.26
2018-07-12T03:44:19.194Z,20.45
2018-07-12T03:46:46.998Z,20.42
2018-07-12T03:49:14.801Z,20.43
2018-07-12T03:51:42.829Z,20.43
2018-07-12T03:54:10.591Z,20.38
2018-07-12T03:56:38.369Z,20.49
2018-07-12T03:59:06.445Z,20.56
2018-07-12T04:01:34.224Z,20.40
2018-07-12T04:04:02.031Z,20.29
2018-07-12T04:06:29.861Z,20.27
2018-07-12T04:08:57.799Z,20.21
2018-07-12T04:11:25.742Z,20.20
2018-07-12T04:13:53.573Z,20.31
2018-07-12T04:16:21.363Z,20.40
2018-07-12T04:18:49.209Z,20.59
2018-07-12T04:21:18.084Z,20.60
2018-07-12T04:23:45.927Z,20.65
2018-07-12T04:26:13.958Z,20.73
2018-07-12T04:28:41.792Z,20.93
2018-07-12T04:31:09.758Z,21.13
2018-07-12T04:33:37.587Z,21.24
2018-07-12T04:36:05.402Z,21.21
2018-07-12T04:38:33.188Z,21.24
2018-07-12T04:41:01.091Z,21.29
2018-07-12T04:43:29.450Z,21.53
2018-07-12T04:45:57.467Z,21.67
2018-07-12T04:48:25.232Z,21.68
2018-07-12T04:50:53.039Z,21.82
2018-07-12T04:53:20.918Z,21.83
2018-07-12T04:55:48.809Z,21.84
2018-07-12T04:58:16.801Z,21.80
2018-07-12T05:00:44.797Z,21.82
2018-07-12T05:03:12.589Z,21.87
2018-07-12T05:05:40.506Z,21.91
2018-07-12T05:08:08.324Z,21.82
2018-07-12T05:10:36.059Z,21.92
2018-07-12T05:13:03.824Z,21.90
2018-07-12T05:15:31.615Z,21.72
2018-07-12T05:17:59.438Z,21.62
2018-07-12T05:20:27.262Z,21.62
2018-07-12T05:22:55.052Z,21.48
2018-07-12T05:25:22.825Z,21.51
2018-07-12T05:27:50.729Z,21.65
2018-07-12T05:30:18.807Z,21.82
2018-07-12T05:32:46.575Z,21.92
2018-07-12T05:35:14.382Z,21.90
2018-07-12T05:37:43.700Z,21.89
2018-07-12T05:40:12.982Z,21.93
2018-07-12T05:42:42.358Z,22.02
2018-07-12T05:45:11.445Z,21.94
2018-07-12T05:47:40.811Z,22.21
2018-07-12T05:50:10.244Z,22.18
2018-07-12T05:52:39.554Z,22.14
2018-07-12T05:55:09.020Z,22.42
2018-07-12T05:57:38.351Z,22.52
2018-07-12T06:00:07.727Z,22.68
2018-07-12T06:02:37.024Z,22.76
2018-07-12T06:05:06.451Z,23.00
2018-07-12T06:07:35.828Z,22.91
2018-07-12T06:10:05.228Z,23.06
2018-07-12T06:12:34.939Z,23.28
2018-07-12T06:15:04.310Z,23.36
2018-07-12T06:17:33.610Z,23.49
2018-07-12T06:20:03.013Z,23.64
2018-07-12T06:22:32.389Z,23.73
2018-07-12T06:25:01.718Z,23.72
2018-07-12T06:27:31.680Z,23.66
2018-07-12T06:30:01.152Z,23.47
2018-07-12T06:32:30.403Z,23.39
2018-07-12T06:34:59.831Z,23.36
2018-07-12T06:37:28.892Z,23.44
2018-07-12T06:39:58.195Z,23.51
2018-07-12T06:42:27.501Z,23.53
2018-07-12T06:44:56.558Z,23.50
2018-07-12T06:47:26.095Z,23.48
2018-07-12T06:49:55.466Z,23.61
2018-07-12T06:52:24.788Z,23.72
2018-07-12T06:54:54.242Z,23.32
2018-07-12T06:57:23.730Z,23.28
2018-07-12T06:59:53.077Z,23.26
2018-07-12T07:02:22.506Z,23.64
2018-07-12T07:04:51.908Z,23.58
2018-07-12T07:07:21.289Z,23.87
2018-07-12T07:09:50.698Z,24.23
2018-07-12T07:12:20.024Z,24.62
2018-07-12T07:14:49.306Z,24.97
2018-07-12T07:17:18.576Z,25.09
2018-07-12T07:19:48.651Z,24.76
2018-07-12T07:22:17.979Z,24.83
2018-07-12T07:24:47.281Z,24.70
2018-07-12T07:27:16.647Z,24.68
2018-07-12T07:29:46.051Z,24.69
2018-07-12T07:32:15.331Z,24.69
2018-07-12T07:34:44.690Z,24.63
2018-07-12T07:37:14.054Z,24.60
2018-07-12T07:39:43.424Z,24.58
2018-07-12T07:42:12.856Z,24.95
2018-07-12T07:44:42.230Z,25.06
2018-07-12T07:47:11.630Z,24.79
2018-07-12T07:49:41.126Z,24.51
2018-07-12T07:52:10.459Z,24.56
2018-07-12T07:54:39.977Z,24.62
2018-07-12T07:57:09.420Z,25.20
2018-07-12T07:59:38.656Z,25.32
2018-07-12T08:02:09.272Z,24.96
2018-07-12T08:04:38.726Z,25.09
2018-07-12T08:07:11.173Z,25.31
2018-07-12T08:09:42.565Z,25.57
2018-07-12T08:12:11.922Z,25.79
2018-07-12T08:14:41.588Z,25.82
2018-07-12T08:17:10.955Z,25.73
2018-07-12T08:19:40.652Z,25.74
2018-07-12T08:22:11.059Z,25.95
2018-07-12T08:24:40.498Z,26.02
2018-07-12T08:27:10.381Z,26.30
2018-07-12T08:29:39.698Z,26.45
2018-07-12T08:32:09.115Z,26.40
2018-07-12T08:34:38.731Z,26.28
2018-07-12T08:37:08.036Z,26.47
2018-07-12T08:39:37.506Z,26.58
2018-07-12T08:42:06.944Z,26.89
2018-07-12T08:44:36.216Z,27.03
2018-07-12T08:47:05.979Z,27.00
2018-07-12T08:49:35.316Z,26.83
2018-07-12T08:52:04.856Z,26.87
2018-07-12T08:54:34.503Z,26.87
2018-07-12T08:57:03.818Z,26.98
2018-07-12T08:59:33.111Z,27.20
2018-07-12T09:02:02.458Z,27.13
2018-07-12T09:04:31.792Z,27.31
2018-07-12T09:07:01.087Z,27.21
2018-07-12T09:09:30.812Z,27.23
2018-07-12T09:12:00.072Z,27.63
2018-07-12T09:14:29.431Z,27.96
2018-07-12T09:16:58.737Z,28.13
2018-07-12T09:19:27.967Z,28.07
2018-07-12T09:21:57.264Z,28.15
2018-07-12T09:24:26.590Z,28.37
2018-07-12T09:26:55.932Z,28.40
2018-07-12T09:29:25.231Z,28.84
2018-07-12T09:31:54.880Z,28.93
2018-07-12T09:34:24.208Z,28.74
2018-07-12T09:36:53.671Z,29.13
2018-07-12T09:39:22.975Z,29.37
2018-07-12T09:41:52.265Z,29.68
2018-07-12T09:44:21.588Z,29.58
2018-07-12T09:46:51.015Z,29.67
2018-07-12T09:49:20.465Z,29.52
2018-07-12T09:51:49.884Z,29.33
2018-07-12T09:54:19.562Z,29.70
2018-07-12T09:57:05.650Z,29.93
2018-07-12T09:59:34.958Z,30.18
2018-07-12T10:02:09.449Z,30.28
2018-07-12T10:04:38.777Z,30.25
2018-07-12T10:07:13.434Z,30.32
2018-07-12T10:09:48.029Z,30.38
2018-07-12T10:12:22.480Z,30.52
2018-07-12T10:14:55.923Z,30.73
2018-07-12T10:17:30.590Z,30.53
2018-07-12T10:20:00.133Z,30.69
2018-07-12T10:22:29.444Z,30.86
2018-07-12T10:24:58.744Z,30.83
2018-07-12T10:27:28.997Z,31.00
2018-07-12T10:29:58.423Z,31.32
2018-07-12T10:32:27.701Z,31.04
2018-07-12T10:34:57.037Z,30.47
2018-07-12T10:37:26.338Z,30.70
2018-07-12T10:39:55.422Z,30.74
2018-07-12T10:42:25.282Z,31.15
2018-07-12T10:44:54.691Z,31.16
2018-07-12T10:47:24.054Z,31.34
2018-07-12T10:49:53.844Z,31.65
2018-07-12T10:52:23.206Z,32.03
2018-07-12T10:54:52.525Z,32.08
2018-07-12T10:57:24.597Z,32.40
2018-07-12T10:59:54.038Z,32.48
2018-07-12T11:02:23.416Z,32.44
2018-07-12T11:04:52.794Z,32.18
2018-07-12T11:07:22.080Z,32.07
2018-07-12T11:09:51.444Z,32.32
2018-07-12T11:12:21.593Z,32.72
2018-07-12T11:14:50.934Z,32.66
2018-07-12T11:17:20.251Z,32.77
2018-07-12T11:19:49.638Z,32.59
2018-07-12T11:22:18.986Z,32.90
2018-07-12T11:24:48.305Z,32.76
2018-07-12T11:27:17.662Z,32.06
2018-07-12T11:29:57.017Z,32.26
2018-07-12T11:32:27.007Z,32.05
2018-07-12T11:34:56.362Z,31.88
2018-07-12T11:37:26.914Z,32.02
2018-07-12T11:39:56.344Z,32.06
2018-07-12T11:42:25.706Z,31.93
2018-07-12T11:44:55.983Z,32.12
2018-07-12T11:47:25.412Z,32.68
2018-07-12T11:49:54.841Z,32.67
2018-07-12T11:52:24.374Z,33.05
2018-07-12T11:54:54.228Z,33.08
2018-07-12T11:57:23.591Z,33.19
2018-07-12T11:59:52.938Z,33.59
2018-07-12T12:02:22.336Z,33.48
2018-07-12T12:04:51.738Z,33.98
2018-07-12T12:07:21.097Z,34.01
2018-07-12T12:09:51.035Z,34.11
2018-07-12T12:12:20.391Z,34.11
2018-07-12T12:14:49.794Z,34.18
2018-07-12T12:17:19.494Z,34.01
2018-07-12T12:19:48.982Z,33.64
2018-07-12T12:22:18.268Z,33.22
2018-07-12T12:24:47.353Z,33.16
2018-07-12T12:27:16.690Z,32.85
2018-07-12T12:29:46.079Z,32.40
2018-07-12T12:32:15.449Z,32.10
2018-07-12T12:34:44.790Z,31.78
2018-07-12T12:37:14.104Z,31.64
2018-07-12T12:39:43.624Z,31.42
2018-07-12T12:42:12.907Z,31.67
2018-07-12T12:44:42.236Z,32.06
2018-07-12T12:47:11.596Z,31.92
2018-07-12T12:49:41.456Z,32.03
2018-07-12T12:52:10.827Z,32.04
2018-07-12T12:54:40.216Z,31.40
2018-07-12T12:57:09.555Z,31.43
2018-07-12T12:59:38.969Z,31.31
2018-07-12T13:02:08.248Z,30.93
2018-07-12T13:04:37.617Z,30.91
2018-07-12T13:07:07.192Z,30.72
2018-07-12T13:09:36.595Z,30.16
2018-07-12T13:12:06.034Z,29.61
2018-07-12T13:14:35.368Z,29.72
2018-07-12T13:17:04.711Z,29.77
2018-07-12T13:19:34.056Z,29.81
2018-07-12T13:22:03.439Z,29.50
2018-07-12T13:24:33.364Z,29.37
2018-07-12T13:27:02.744Z,29.65
2018-07-12T13:32:06.000Z,30.28
2018-07-12T13:34:35.473Z,30.51
2018-07-12T13:37:05.215Z,31.02
2018-07-12T13:39:35.115Z,31.13
2018-07-12T13:42:04.491Z,31.20
2018-07-12T13:44:33.874Z,31.21
2018-07-12T13:47:03.172Z,31.49
2018-07-12T13:49:32.501Z,31.21
2018-07-12T13:52:01.885Z,31.32
2018-07-12T13:54:31.235Z,31.44
2018-07-12T13:57:00.631Z,31.74
2018-07-12T13:59:29.942Z,31.99
2018-07-12T14:01:59.880Z,32.04
2018-07-12T14:04:29.411Z,31.86
2018-07-12T14:06:58.759Z,31.79
2018-07-12T14:09:28.168Z,31.49
2018-07-12T14:11:57.678Z,31.78
2018-07-12T14:14:27.010Z,31.75
2018-07-12T14:16:56.430Z,31.64
2018-07-12T14:19:25.857Z,31.55
2018-07-12T14:21:55.216Z,31.94
2018-07-12T14:24:25.373Z,31.97
2018-07-12T14:26:54.840Z,31.95
2018-07-12T14:29:24.263Z,31.93
2018-07-12T14:31:53.643Z,31.78
2018-07-12T14:34:22.999Z,31.63
2018-07-12T14:36:52.546Z,31.78
2018-07-12T14:39:22.070Z,31.60
2018-07-12T14:41:51.483Z,31.63
2018-07-12T14:44:20.823Z,31.21
2018-07-12T14:46:51.370Z,31.35
2018-07-12T14:49:20.639Z,31.32
2018-07-12T14:51:49.963Z,31.60
2018-07-12T14:54:19.319Z,31.27
2018-07-12T14:56:48.673Z,31.16
2018-07-12T14:59:18.057Z,31.31
2018-07-12T15:01:47.490Z,31.10
2018-07-12T15:04:16.793Z,30.96
2018-07-12T15:06:46.391Z,31.07
2018-07-12T15:09:16.181Z,30.85
2018-07-12T15:11:45.362Z,30.93
2018-07-12T15:14:14.646Z,31.10
2018-07-12T15:16:44.130Z,30.91
2018-07-12T15:19:13.644Z,30.71
2018-07-12T15:21:42.920Z,30.59
2018-07-12T15:24:12.351Z,30.37
2018-07-12T15:26:41.862Z,30.43
2018-07-12T15:29:11.422Z,30.35
2018-07-12T15:31:41.378Z,30.20
2018-07-12T15:34:10.706Z,30.00
2018-07-12T15:36:40.260Z,29.83
2018-07-12T15:39:10.165Z,29.74
2018-07-12T15:41:40.182Z,29.80
2018-07-12T15:44:10.494Z,29.64
2018-07-12T15:46:40.025Z,29.60
2018-07-12T15:49:09.381Z,29.59
2018-07-12T15:51:38.707Z,29.53
2018-07-12T15:54:08.427Z,29.70
2018-07-12T15:56:37.735Z,29.57
2018-07-12T15:59:07.015Z,29.66
2018-07-12T16:01:36.459Z,29.84
2018-07-12T16:04:05.969Z,29.89
2018-07-12T16:06:35.291Z,29.95
2018-07-12T16:09:06.084Z,30.11
2018-07-12T16:11:35.561Z,29.94
2018-07-12T16:14:05.045Z,29.81
2018-07-12T16:16:34.628Z,29.12
2018-07-12T16:19:04.024Z,29.21
2018-07-12T16:21:33.362Z,29.41
2018-07-12T16:24:02.705Z,28.86
2018-07-12T16:26:32.036Z,29.24
2018-07-12T16:29:01.459Z,29.30
2018-07-12T16:31:30.907Z,29.34
2018-07-12T16:34:00.138Z,29.14
2018-07-12T16:36:29.498Z,28.99
2018-07-12T16:38:59.064Z,28.75
2018-07-12T16:41:28.445Z,28.68
2018-07-12T16:43:57.773Z,28.81
2018-07-12T16:46:27.151Z,28.93
2018-07-12T16:48:56.456Z,29.02
2018-07-12T16:51:25.890Z,28.81
2018-07-12T16:53:55.242Z,28.78
2018-07-12T16:56:24.546Z,28.62
2018-07-12T16:58:53.894Z,28.81
2018-07-12T17:01:23.632Z,28.62
2018-07-12T17:03:53.052Z,28.75
2018-07-12T17:06:22.862Z,28.77
2018-07-12T17:08:52.380Z,28.77
2018-07-12T17:11:21.770Z,28.54
2018-07-12T17:13:51.168Z,28.49
2018-07-12T17:16:20.571Z,28.45
2018-07-12T17:18:49.920Z,28.59
2018-07-12T17:21:19.324Z,28.57
2018-07-12T17:23:49.203Z,28.44
2018-07-12T17:26:18.579Z,28.39
2018-07-12T17:28:47.989Z,28.27
2018-07-12T17:31:17.359Z,28.41
2018-07-12T17:33:46.768Z,28.45
2018-07-12T17:36:16.146Z,28.42
2018-07-12T17:38:45.617Z,28.30
2018-07-12T17:41:14.969Z,28.34
2018-07-12T17:43:44.318Z,28.16
2018-07-12T17:46:13.802Z,27.95
2018-07-12T17:48:43.189Z,27.85
2018-07-12T17:51:12.608Z,27.95
2018-07-12T17:53:42.219Z,27.77
2018-07-12T17:56:11.594Z,27.79
2018-07-12T17:58:41.099Z,27.71
2018-07-12T18:01:10.585Z,27.66
2018-07-12T18:03:40.026Z,27.82
2018-07-12T18:06:09.338Z,27.72
2018-07-12T18:08:38.960Z,27.93
2018-07-12T18:11:08.381Z,28.02
2018-07-12T18:13:37.799Z,28.04
2018-07-12T18:16:07.326Z,27.82
2018-07-12T18:18:36.703Z,27.66
2018-07-12T18:21:06.492Z,27.40
2018-07-12T18:23:35.856Z,27.24
2018-07-12T18:26:05.581Z,27.22
2018-07-12T18:28:35.212Z,26.98
2018-07-12T18:31:04.876Z,26.83
2018-07-12T18:33:34.689Z,26.82
2018-07-12T18:36:04.288Z,26.80
2018-07-12T18:38:33.922Z,26.58
2018-07-12T18:41:03.440Z,26.76
2018-07-12T18:43:32.858Z,26.74
2018-07-12T18:46:02.178Z,26.65
2018-07-12T18:48:31.519Z,26.57
2018-07-12T18:51:00.839Z,26.56
2018-07-12T18:53:30.574Z,26.63
2018-07-12T18:55:59.985Z,26.84
2018-07-12T18:58:29.379Z,26.61
2018-07-12T19:00:58.768Z,26.47
2018-07-12T19:03:28.162Z,26.59
2018-07-12T19:05:57.620Z,26.56
2018-07-12T19:08:27.059Z,26.56
2018-07-12T19:10:56.627Z,26.61
2018-07-12T19:13:25.942Z,26.37
2018-07-12T19:15:55.950Z,26.36
2018-07-12T19:18:25.415Z,26.33
2018-07-12T19:20:54.762Z,26.26
2018-07-12T19:23:24.387Z,26.09
2018-07-12T19:25:53.838Z,26.12
2018-07-12T19:28:23.294Z,25.93
2018-07-12T19:30:52.711Z,25.78
2018-07-12T19:33:22.087Z,25.80
2018-07-12T19:35:51.516Z,25.69
2018-07-12T19:38:21.295Z,25.54
2018-07-12T19:40:50.683Z,25.50
2018-07-12T19:43:20.130Z,25.62
2018-07-12T19:45:49.716Z,25.50
2018-07-12T19:48:19.384Z,25.14
2018-07-12T19:50:48.820Z,25.01
2018-07-12T19:53:18.426Z,24.90
2018-07-12T19:55:50.354Z,24.60
2018-07-12T19:58:19.895Z,24.47
2018-07-12T20:00:49.299Z,24.50
2018-07-12T20:03:18.655Z,24.40
2018-07-12T20:05:48.253Z,24.51
2018-07-12T20:08:17.693Z,24.53
2018-07-12T20:10:47.269Z,24.49
2018-07-12T20:13:16.773Z,24.39
2018-07-12T20:15:46.202Z,24.33
2018-07-12T20:18:15.905Z,24.16
2018-07-12T20:20:45.522Z,23.93
2018-07-12T20:23:15.105Z,23.87
2018-07-12T20:25:44.483Z,23.78
2018-07-12T20:28:14.165Z,23.69
2018-07-12T20:30:43.628Z,23.73
2018-07-12T20:33:13.126Z,23.63
2018-07-12T20:35:42.633Z,23.55
2018-07-12T20:38:11.950Z,23.59
2018-07-12T20:40:41.335Z,23.55
2018-07-12T20:43:17.866Z,23.27
2018-07-12T20:45:47.687Z,23.38
2018-07-12T20:48:17.575Z,23.26
2018-07-12T20:50:47.000Z,23.13
2018-07-12T20:53:16.678Z,23.03
2018-07-12T20:55:46.085Z,22.86
2018-07-12T20:58:15.500Z,22.77
2018-07-12T21:00:44.896Z,22.55
2018-07-12T21:03:14.333Z,22.71
2018-07-12T21:05:43.991Z,22.55
2018-07-12T21:08:13.458Z,22.52
2018-07-12T21:10:42.920Z,22.50
2018-07-12T21:13:12.319Z,22.36
2018-07-12T21:15:41.694Z,22.46
2018-07-12T21:18:10.824Z,22.29
2018-07-12T21:20:40.471Z,22.41
2018-07-12T21:23:09.911Z,22.26
2018-07-12T21:25:39.386Z,22.07
2018-07-12T21:28:09.051Z,22.14
2018-07-12T21:30:38.431Z,21.90
2018-07-12T21:33:07.793Z,21.79
2018-07-12T21:35:37.289Z,21.64
2018-07-12T21:38:06.618Z,21.66
2018-07-12T21:40:35.973Z,21.56
2018-07-12T21:43:05.439Z,21.34
2018-07-12T21:45:34.844Z,20.99
2018-07-12T21:48:04.233Z,21.17
2018-07-12T21:50:34.008Z,20.88
2018-07-12T21:53:03.348Z,21.04
2018-07-12T21:55:32.641Z,20.92
2018-07-12T21:58:02.044Z,20.97
2018-07-12T22:00:32.790Z,21.02
2018-07-12T22:03:02.460Z,20.83
2018-07-12T22:05:31.957Z,20.84
2018-07-12T22:08:11.801Z,20.71
2018-07-12T22:10:42.126Z,20.76
2018-07-12T22:13:12.130Z,20.57
2018-07-12T22:15:41.611Z,20.47
2018-07-12T22:18:11.413Z,20.60
2018-07-12T22:20:40.870Z,20.64
2018-07-12T22:23:10.421Z,20.66
2018-07-12T22:25:40.235Z,20.62
2018-07-12T22:28:09.702Z,20.55
2018-07-12T22:30:39.137Z,20.34
2018-07-12T22:33:08.484Z,20.36
2018-07-12T22:35:37.583Z,20.40
2018-07-12T22:38:06.944Z,20.19
2018-07-12T22:40:36.322Z,20.13
2018-07-12T22:43:05.666Z,20.11
2018-07-12T22:45:35.129Z,20.11
2018-07-12T22:48:04.553Z,20.12
2018-07-12T22:50:34.010Z,20.05
2018-07-12T22:53:03.473Z,19.89
2018-07-12T22:55:32.955Z,19.72
2018-07-12T22:58:02.306Z,19.67
2018-07-12T23:00:31.644Z,19.71
2018-07-12T23:03:01.068Z,19.84
2018-07-12T23:05:30.448Z,19.58
2018-07-12T23:08:00.086Z,19.73
2018-07-12T23:10:29.532Z,19.82
2018-07-12T23:12:58.795Z,19.58
2018-07-12T23:15:28.197Z,19.80
2018-07-12T23:17:58.280Z,19.94
2018-07-12T23:20:27.591Z,19.96
2018-07-12T23:22:57.135Z,19.92
2018-07-12T23:25:26.664Z,19.78
2018-07-12T23:27:56.040Z,19.74
2018-07-12T23:30:25.538Z,19.73
2018-07-12T23:32:55.163Z,19.86
2018-07-12T23:35:24.677Z,19.76
2018-07-12T23:37:54.064Z,19.74
2018-07-12T23:40:23.738Z,19.73
2018-07-12T23:42:53.356Z,19.70
2018-07-12T23:45:22.942Z,19.75
2018-07-12T23:47:52.365Z,19.64
2018-07-12T23:50:21.672Z,19.70
2018-07-12T23:52:51.102Z,19.77
2018-07-12T23:55:20.477Z,19.76
2018-07-12T23:57:49.803Z,19.67
